sensor_id;sensor_type;location;lat;lon;timestamp;pressure;altitude;pressure_sealevel;temperature;humidity
54978;BME280;40873;47.522;19.106;2023-02-14T00:01:11;102094.66;;;2.18;100.00
54978;BME280;40873;47.522;19.106;2023-02-14T00:03:39;102079.91;;;2.14;100.00
54978;BME280;40873;47.522;19.106;2023-02-14T00:06:07;102078.16;;;2.12;100.00
54978;BME280;40873;47.522;19.106;2023-02-14T00:08:35;102084.25;;;2.18;100.00
54978;BME280;40873;47.522;19.106;2023-02-14T00:11:03;102086.88;;;2.28;100.00
54978;BME280;40873;47.522;19.106;2023-02-14T00:13:31;102083.38;;;2.21;100.00
54978;BME280;40873;47.522;19.106;2023-02-14T00:15:58;102082.50;;;2.19;100.00
54978;BME280;40873;47.522;19.106;2023-02-14T00:18:25;102086.88;;;2.25;100.00
54978;BME280;40873;47.522;19.106;2023-02-14T00:21:12;102086.00;;;2.42;100.00
54978;BME280;40873;47.522;19.106;2023-02-14T00:23:39;102078.19;;;2.41;100.00
54978;BME280;40873;47.522;19.106;2023-02-14T00:26:12;102080.78;;;2.36;100.00
54978;BME280;40873;47.522;19.106;2023-02-14T00:28:39;102079.06;;;2.40;100.00
54978;BME280;40873;47.522;19.106;2023-02-14T00:31:06;102069.53;;;2.59;100.00
54978;BME280;40873;47.522;19.106;2023-02-14T00:33:34;102065.16;;;2.50;100.00
54978;BME280;40873;47.522;19.106;2023-02-14T00:36:02;102073.00;;;2.47;100.00
54978;BME280;40873;47.522;19.106;2023-02-14T00:38:30;102070.41;;;2.52;100.00
54978;BME280;40873;47.522;19.106;2023-02-14T00:40:56;102082.53;;;2.50;100.00
54978;BME280;40873;47.522;19.106;2023-02-14T00:43:24;102091.25;;;2.58;100.00
54978;BME280;40873;47.522;19.106;2023-02-14T00:45:51;102090.38;;;2.66;100.00
54978;BME280;40873;47.522;19.106;2023-02-14T00:48:18;102101.66;;;2.61;100.00
54978;BME280;40873;47.522;19.106;2023-02-14T00:50:45;102091.25;;;2.68;100.00
54978;BME280;40873;47.522;19.106;2023-02-14T00:53:12;102097.34;;;2.66;100.00
54978;BME280;40873;47.522;19.106;2023-02-14T00:55:39;102097.34;;;2.64;100.00
54978;BME280;40873;47.522;19.106;2023-02-14T00:58:06;102090.38;;;2.68;100.00
54978;BME280;40873;47.522;19.106;2023-02-14T01:00:33;102089.50;;;2.66;100.00
54978;BME280;40873;47.522;19.106;2023-02-14T01:03:00;102081.69;;;2.58;100.00
54978;BME280;40873;47.522;19.106;2023-02-14T01:05:27;102074.72;;;2.71;100.00
54978;BME280;40873;47.522;19.106;2023-02-14T01:07:54;102078.19;;;2.64;100.00
54978;BME280;40873;47.522;19.106;2023-02-14T01:10:24;102071.25;;;2.63;100.00
54978;BME280;40873;47.522;19.106;2023-02-14T01:12:51;102060.84;;;2.58;100.00
54978;BME280;40873;47.522;19.106;2023-02-14T01:15:18;102068.66;;;2.58;100.00
54978;BME280;40873;47.522;19.106;2023-02-14T01:17:45;102057.34;;;2.62;100.00
54978;BME280;40873;47.522;19.106;2023-02-14T01:20:12;102059.13;;;2.65;100.00
54978;BME280;40873;47.522;19.106;2023-02-14T01:22:43;102056.47;;;2.75;100.00
54978;BME280;40873;47.522;19.106;2023-02-14T01:25:10;102055.63;;;2.75;100.00
54978;BME280;40873;47.522;19.106;2023-02-14T01:27:37;102048.66;;;2.85;100.00
54978;BME280;40873;47.522;19.106;2023-02-14T01:30:04;102056.50;;;2.86;100.00
54978;BME280;40873;47.522;19.106;2023-02-14T01:32:33;102059.09;;;2.74;100.00
54978;BME280;40873;47.522;19.106;2023-02-14T01:35:00;102050.41;;;2.73;100.00
54978;BME280;40873;47.522;19.106;2023-02-14T01:37:28;102046.06;;;2.68;100.00
54978;BME280;40873;47.522;19.106;2023-02-14T01:39:55;102041.72;;;2.74;100.00
54978;BME280;40873;47.522;19.106;2023-02-14T01:42:22;102044.34;;;2.67;100.00
54978;BME280;40873;47.522;19.106;2023-02-14T01:45:01;102042.63;;;2.64;100.00
54978;BME280;40873;47.522;19.106;2023-02-14T01:47:32;102046.94;;;2.67;100.00
54978;BME280;40873;47.522;19.106;2023-02-14T01:50:05;102059.97;;;2.64;100.00
54978;BME280;40873;47.522;19.106;2023-02-14T01:52:48;102049.56;;;2.61;100.00
54978;BME280;40873;47.522;19.106;2023-02-14T01:55:20;102054.75;;;2.67;100.00
54978;BME280;40873;47.522;19.106;2023-02-14T01:58:04;102049.53;;;2.78;100.00
54978;BME280;40873;47.522;19.106;2023-02-14T02:00:32;102045.19;;;2.63;100.00
54978;BME280;40873;47.522;19.106;2023-02-14T02:03:18;102034.78;;;2.63;100.00
54978;BME280;40873;47.522;19.106;2023-02-14T02:05:47;102048.69;;;2.68;100.00
54978;BME280;40873;47.522;19.106;2023-02-14T02:08:16;102041.72;;;2.67;100.00
54978;BME280;40873;47.522;19.106;2023-02-14T02:10:43;102046.94;;;2.48;100.00
54978;BME280;40873;47.522;19.106;2023-02-14T02:13:16;102032.19;;;2.46;100.00
54978;BME280;40873;47.522;19.106;2023-02-14T02:18:38;102024.38;;;2.52;100.00
54978;BME280;40873;47.522;19.106;2023-02-14T02:24:40;102020.03;;;2.42;100.00
54978;BME280;40873;47.522;19.106;2023-02-14T02:29:50;102018.28;;;2.48;100.00
54978;BME280;40873;47.522;19.106;2023-02-14T02:35:49;102023.50;;;2.35;100.00
54978;BME280;40873;47.522;19.106;2023-02-14T02:41:08;102018.28;;;2.24;100.00
54978;BME280;40873;47.522;19.106;2023-02-14T02:46:38;102016.56;;;2.37;100.00
54978;BME280;40873;47.522;19.106;2023-02-14T02:49:25;102015.69;;;2.39;100.00
54978;BME280;40873;47.522;19.106;2023-02-14T02:52:25;102018.28;;;2.50;100.00
54978;BME280;40873;47.522;19.106;2023-02-14T02:55:18;102011.31;;;2.57;100.00
54978;BME280;40873;47.522;19.106;2023-02-14T02:57:47;102018.28;;;2.50;100.00
54978;BME280;40873;47.522;19.106;2023-02-14T03:00:17;102013.94;;;2.49;100.00
54978;BME280;40873;47.522;19.106;2023-02-14T03:02:50;102018.28;;;2.42;100.00
54978;BME280;40873;47.522;19.106;2023-02-14T03:05:36;102017.44;;;2.39;100.00
54978;BME280;40873;47.522;19.106;2023-02-14T03:08:04;102011.34;;;2.47;100.00
54978;BME280;40873;47.522;19.106;2023-02-14T03:10:34;102012.22;;;2.39;100.00
54978;BME280;40873;47.522;19.106;2023-02-14T03:19:12;102018.28;;;2.39;100.00
54978;BME280;40873;47.522;19.106;2023-02-14T03:22:27;102016.56;;;2.37;100.00
54978;BME280;40873;47.522;19.106;2023-02-14T03:28:11;102013.09;;;2.38;100.00
54978;BME280;40873;47.522;19.106;2023-02-14T03:30:47;102000.06;;;2.33;100.00
54978;BME280;40873;47.522;19.106;2023-02-14T03:33:20;102005.28;;;2.26;100.00
54978;BME280;40873;47.522;19.106;2023-02-14T03:36:01;102013.09;;;2.30;100.00
54978;BME280;40873;47.522;19.106;2023-02-14T03:38:49;102015.69;;;2.27;100.00
54978;BME280;40873;47.522;19.106;2023-02-14T03:41:25;102009.59;;;2.22;100.00
54978;BME280;40873;47.522;19.106;2023-02-14T03:43:56;102013.94;;;2.26;100.00
54978;BME280;40873;47.522;19.106;2023-02-14T03:46:29;102010.47;;;2.27;100.00
54978;BME280;40873;47.522;19.106;2023-02-14T03:49:02;102014.81;;;2.28;100.00
54978;BME280;40873;47.522;19.106;2023-02-14T03:51:32;102017.44;;;2.31;100.00
54978;BME280;40873;47.522;19.106;2023-02-14T03:54:02;102010.47;;;2.29;100.00
54978;BME280;40873;47.522;19.106;2023-02-14T03:56:37;102012.22;;;2.30;100.00
54978;BME280;40873;47.522;19.106;2023-02-14T03:59:14;102014.81;;;2.28;100.00
54978;BME280;40873;47.522;19.106;2023-02-14T04:04:23;102014.81;;;2.20;100.00
54978;BME280;40873;47.522;19.106;2023-02-14T04:06:53;102013.94;;;2.20;100.00
54978;BME280;40873;47.522;19.106;2023-02-14T04:09:20;102007.00;;;2.19;100.00
54978;BME280;40873;47.522;19.106;2023-02-14T04:11:47;102008.72;;;2.14;100.00
54978;BME280;40873;47.522;19.106;2023-02-14T04:14:16;102014.81;;;2.04;100.00
54978;BME280;40873;47.522;19.106;2023-02-14T04:16:43;102006.97;;;1.99;100.00
54978;BME280;40873;47.522;19.106;2023-02-14T04:19:29;102010.44;;;1.93;100.00
54978;BME280;40873;47.522;19.106;2023-02-14T04:21:56;102012.19;;;1.96;100.00
54978;BME280;40873;47.522;19.106;2023-02-14T04:24:23;102011.31;;;1.89;100.00
54978;BME280;40873;47.522;19.106;2023-02-14T04:26:50;102010.44;;;1.84;100.00
54978;BME280;40873;47.522;19.106;2023-02-14T04:32:11;102024.28;;;1.77;100.00
54978;BME280;40873;47.522;19.106;2023-02-14T04:34:38;102025.16;;;1.76;100.00
54978;BME280;40873;47.522;19.106;2023-02-14T04:37:06;102026.88;;;1.70;100.00
54978;BME280;40873;47.522;19.106;2023-02-14T04:39:34;102021.63;;;1.59;100.00
54978;BME280;40873;47.522;19.106;2023-02-14T04:42:02;102025.09;;;1.53;100.00
54978;BME280;40873;47.522;19.106;2023-02-14T04:44:29;102020.75;;;1.57;100.00
54978;BME280;40873;47.522;19.106;2023-02-14T04:46:56;102023.31;;;1.45;100.00
54978;BME280;40873;47.522;19.106;2023-02-14T04:49:23;102012.00;;;1.36;100.00
54978;BME280;40873;47.522;19.106;2023-02-14T04:51:50;102008.56;;;1.44;100.00
54978;BME280;40873;47.522;19.106;2023-02-14T04:54:17;102022.31;;;1.18;100.00
54978;BME280;40873;47.522;19.106;2023-02-14T04:56:44;102019.78;;;1.30;100.00
54978;BME280;40873;47.522;19.106;2023-02-14T04:59:11;102017.19;;;1.26;100.00
54978;BME280;40873;47.522;19.106;2023-02-14T05:01:38;102011.84;;;1.03;100.00
54978;BME280;40873;47.522;19.106;2023-02-14T05:04:05;102014.47;;;1.07;100.00
54978;BME280;40873;47.522;19.106;2023-02-14T05:06:32;102016.22;;;1.08;100.00
54978;BME280;40873;47.522;19.106;2023-02-14T05:09:00;102012.75;;;1.06;100.00
54978;BME280;40873;47.522;19.106;2023-02-14T05:11:28;102018.78;;;1.02;100.00
54978;BME280;40873;47.522;19.106;2023-02-14T05:13:55;102020.28;;;0.68;100.00
54978;BME280;40873;47.522;19.106;2023-02-14T05:16:22;102017.63;;;0.59;100.00
54978;BME280;40873;47.522;19.106;2023-02-14T05:18:50;102016.00;;;0.75;100.00
54978;BME280;40873;47.522;19.106;2023-02-14T05:21:17;102025.47;;;0.65;100.00
54978;BME280;40873;47.522;19.106;2023-02-14T05:23:44;102016.88;;;0.71;100.00
54978;BME280;40873;47.522;19.106;2023-02-14T05:26:11;102020.31;;;0.70;100.00
54978;BME280;40873;47.522;19.106;2023-02-14T05:28:37;102019.50;;;0.77;100.00
54978;BME280;40873;47.522;19.106;2023-02-14T05:31:08;102026.41;;;0.73;100.00
54978;BME280;40873;47.522;19.106;2023-02-14T05:33:35;102022.03;;;0.68;100.00
54978;BME280;40873;47.522;19.106;2023-02-14T05:36:02;102029.00;;;0.72;100.00
54978;BME280;40873;47.522;19.106;2023-02-14T05:38:29;102025.31;;;0.47;100.00
54978;BME280;40873;47.522;19.106;2023-02-14T05:40:57;102025.38;;;0.54;100.00
54978;BME280;40873;47.522;19.106;2023-02-14T05:43:24;102027.81;;;0.33;100.00
54978;BME280;40873;47.522;19.106;2023-02-14T05:45:52;102025.25;;;0.38;100.00
54978;BME280;40873;47.522;19.106;2023-02-14T05:48:20;102027.91;;;0.44;100.00
54978;BME280;40873;47.522;19.106;2023-02-14T05:50:47;102028.69;;;0.34;100.00
54978;BME280;40873;47.522;19.106;2023-02-14T05:53:14;102027.84;;;0.38;100.00
54978;BME280;40873;47.522;19.106;2023-02-14T05:55:41;102028.78;;;0.43;100.00
54978;BME280;40873;47.522;19.106;2023-02-14T05:58:08;102032.88;;;0.16;100.00
54978;BME280;40873;47.522;19.106;2023-02-14T06:00:35;102029.34;;;0.11;100.00
54978;BME280;40873;47.522;19.106;2023-02-14T06:03:05;102038.13;;;0.22;100.00
54978;BME280;40873;47.522;19.106;2023-02-14T06:05:32;102039.75;;;0.13;100.00
54978;BME280;40873;47.522;19.106;2023-02-14T06:07:59;102050.38;;;0.40;100.00
54978;BME280;40873;47.522;19.106;2023-02-14T06:10:30;102039.03;;;0.29;100.00
54978;BME280;40873;47.522;19.106;2023-02-14T06:12:57;102043.38;;;0.32;100.00
54978;BME280;40873;47.522;19.106;2023-02-14T06:15:25;102044.91;;;0.11;100.00
54978;BME280;40873;47.522;19.106;2023-02-14T06:17:56;102050.16;;;0.14;100.00
54978;BME280;40873;47.522;19.106;2023-02-14T06:20:23;102052.69;;;0.11;100.00
54978;BME280;40873;47.522;19.106;2023-02-14T06:22:50;102051.03;;;0.15;100.00
54978;BME280;40873;47.522;19.106;2023-02-14T06:25:19;102062.22;;;0.11;100.00
54978;BME280;40873;47.522;19.106;2023-02-14T06:27:46;102068.34;;;0.20;100.00
54978;BME280;40873;47.522;19.106;2023-02-14T06:30:16;102072.72;;;0.21;100.00
54978;BME280;40873;47.522;19.106;2023-02-14T06:32:43;102078.03;;;0.35;100.00
54978;BME280;40873;47.522;19.106;2023-02-14T06:35:10;102086.75;;;0.42;100.00
54978;BME280;40873;47.522;19.106;2023-02-14T06:37:39;102084.13;;;0.40;100.00
54978;BME280;40873;47.522;19.106;2023-02-14T06:40:08;102089.44;;;0.51;100.00
54978;BME280;40873;47.522;19.106;2023-02-14T06:42:36;102090.28;;;0.50;100.00
54978;BME280;40873;47.522;19.106;2023-02-14T06:45:04;102091.97;;;0.43;100.00
54978;BME280;40873;47.522;19.106;2023-02-14T06:47:32;102088.50;;;0.47;100.00
54978;BME280;40873;47.522;19.106;2023-02-14T06:50:01;102091.16;;;0.52;100.00
54978;BME280;40873;47.522;19.106;2023-02-14T06:52:33;102084.41;;;0.71;100.00
54978;BME280;40873;47.522;19.106;2023-02-14T06:55:00;102099.13;;;0.72;100.00
54978;BME280;40873;47.522;19.106;2023-02-14T06:57:27;102089.66;;;0.83;100.00
54978;BME280;40873;47.522;19.106;2023-02-14T06:59:54;102084.53;;;0.88;100.00
54978;BME280;40873;47.522;19.106;2023-02-14T07:02:21;102092.31;;;0.88;100.00
54978;BME280;40873;47.522;19.106;2023-02-14T07:04:51;102091.59;;;1.08;100.00
54978;BME280;40873;47.522;19.106;2023-02-14T07:07:18;102095.19;;;1.26;100.00
54978;BME280;40873;47.522;19.106;2023-02-14T07:09:45;102097.81;;;1.36;100.00
54978;BME280;40873;47.522;19.106;2023-02-14T07:12:12;102095.22;;;1.36;100.00
54978;BME280;40873;47.522;19.106;2023-02-14T07:14:39;102097.84;;;1.41;100.00
54978;BME280;40873;47.522;19.106;2023-02-14T07:17:06;102095.31;;;1.59;100.00
54978;BME280;40873;47.522;19.106;2023-02-14T07:19:34;102096.25;;;1.74;100.00
54978;BME280;40873;47.522;19.106;2023-02-14T07:22:01;102086.75;;;1.80;100.00
54978;BME280;40873;47.522;19.106;2023-02-14T07:24:28;102094.56;;;1.82;100.00
54978;BME280;40873;47.522;19.106;2023-02-14T07:26:55;102092.84;;;1.87;100.00
54978;BME280;40873;47.522;19.106;2023-02-14T07:29:22;102106.75;;;1.93;100.00
54978;BME280;40873;47.522;19.106;2023-02-14T07:31:49;102107.66;;;2.08;100.00
54978;BME280;40873;47.522;19.106;2023-02-14T07:34:16;102107.69;;;2.17;100.00
54978;BME280;40873;47.522;19.106;2023-02-14T07:36:43;102116.38;;;2.25;100.00
54978;BME280;40873;47.522;19.106;2023-02-14T07:39:10;102113.78;;;2.36;100.00
54978;BME280;40873;47.522;19.106;2023-02-14T07:41:37;102109.50;;;2.52;100.00
54978;BME280;40873;47.522;19.106;2023-02-14T07:44:04;102115.56;;;2.58;100.00
54978;BME280;40873;47.522;19.106;2023-02-14T07:46:31;102109.50;;;2.73;100.00
54978;BME280;40873;47.522;19.106;2023-02-14T07:48:58;102124.25;;;2.88;100.00
54978;BME280;40873;47.522;19.106;2023-02-14T07:51:25;102113.81;;;3.01;100.00
54978;BME280;40873;47.522;19.106;2023-02-14T07:53:52;102123.34;;;3.16;100.00
54978;BME280;40873;47.522;19.106;2023-02-14T07:56:19;102125.91;;;3.48;100.00
54978;BME280;40873;47.522;19.106;2023-02-14T07:58:46;102128.47;;;3.59;100.00
54978;BME280;40873;47.522;19.106;2023-02-14T08:01:15;102126.69;;;3.67;100.00
54978;BME280;40873;47.522;19.106;2023-02-14T08:03:43;102117.06;;;3.81;100.00
54978;BME280;40873;47.522;19.106;2023-02-14T08:06:16;102117.03;;;3.97;100.00
54978;BME280;40873;47.522;19.106;2023-02-14T08:08:43;102122.13;;;4.15;100.00
54978;BME280;40873;47.522;19.106;2023-02-14T08:11:11;102122.97;;;4.26;100.00
54978;BME280;40873;47.522;19.106;2023-02-14T08:13:38;102115.03;;;4.35;100.00
54978;BME280;40873;47.522;19.106;2023-02-14T08:16:05;102119.31;;;4.49;100.00
54978;BME280;40873;47.522;19.106;2023-02-14T08:18:36;102113.84;;;4.82;100.00
54978;BME280;40873;47.522;19.106;2023-02-14T08:21:06;102114.53;;;5.00;99.67
54978;BME280;40873;47.522;19.106;2023-02-14T08:23:34;102121.38;;;5.14;99.94
54978;BME280;40873;47.522;19.106;2023-02-14T08:26:01;102120.38;;;5.29;97.02
54978;BME280;40873;47.522;19.106;2023-02-14T08:28:29;102113.00;;;5.65;94.66
54978;BME280;40873;47.522;19.106;2023-02-14T08:30:58;102118.16;;;5.71;92.81
54978;BME280;40873;47.522;19.106;2023-02-14T08:33:26;102115.63;;;5.62;92.02
54978;BME280;40873;47.522;19.106;2023-02-14T08:35:53;102120.09;;;5.57;92.55
54978;BME280;40873;47.522;19.106;2023-02-14T08:38:20;102119.56;;;6.01;89.87
54978;BME280;40873;47.522;19.106;2023-02-14T08:40:47;102117.59;;;6.17;89.92
54978;BME280;40873;47.522;19.106;2023-02-14T08:43:14;102119.09;;;6.35;88.76
54978;BME280;40873;47.522;19.106;2023-02-14T08:45:41;102119.78;;;6.47;86.92
54978;BME280;40873;47.522;19.106;2023-02-14T08:48:11;102117.75;;;6.65;85.79
54978;BME280;40873;47.522;19.106;2023-02-14T08:50:39;102123.41;;;6.93;85.39
54978;BME280;40873;47.522;19.106;2023-02-14T08:53:11;102125.72;;;7.11;84.28
54978;BME280;40873;47.522;19.106;2023-02-14T08:55:38;102120.28;;;7.23;82.58
54978;BME280;40873;47.522;19.106;2023-02-14T08:58:06;102119.34;;;7.26;82.45
54978;BME280;40873;47.522;19.106;2023-02-14T09:00:34;102123.13;;;7.56;81.02
54978;BME280;40873;47.522;19.106;2023-02-14T09:03:01;102121.25;;;7.62;79.98
54978;BME280;40873;47.522;19.106;2023-02-14T09:05:28;102118.00;;;7.51;80.71
54978;BME280;40873;47.522;19.106;2023-02-14T09:07:55;102117.47;;;7.76;80.14
54978;BME280;40873;47.522;19.106;2023-02-14T09:10:24;102117.75;;;8.04;77.68
54978;BME280;40873;47.522;19.106;2023-02-14T09:12:51;102121.78;;;8.21;77.82
54978;BME280;40873;47.522;19.106;2023-02-14T09:15:18;102112.16;;;8.19;76.84
54978;BME280;40873;47.522;19.106;2023-02-14T09:17:46;102114.28;;;8.43;76.00
54978;BME280;40873;47.522;19.106;2023-02-14T09:20:14;102111.13;;;8.65;75.05
54978;BME280;40873;47.522;19.106;2023-02-14T09:22:41;102113.09;;;8.57;74.88
54978;BME280;40873;47.522;19.106;2023-02-14T09:25:09;102114.28;;;8.43;76.08
54978;BME280;40873;47.522;19.106;2023-02-14T09:27:37;102112.75;;;8.70;74.25
54978;BME280;40873;47.522;19.106;2023-02-14T09:30:07;102113.81;;;8.99;72.87
54978;BME280;40873;47.522;19.106;2023-02-14T09:32:36;102120.69;;;9.03;71.29
54978;BME280;40873;47.522;19.106;2023-02-14T09:35:02;102124.22;;;8.68;72.11
54978;BME280;40873;47.522;19.106;2023-02-14T09:37:30;102119.31;;;8.88;71.52
54978;BME280;40873;47.522;19.106;2023-02-14T09:39:57;102123.97;;;9.13;70.75
54978;BME280;40873;47.522;19.106;2023-02-14T09:45:26;102119.75;;;9.71;68.77
54978;BME280;40873;47.522;19.106;2023-02-14T09:48:11;102122.97;;;9.80;67.76
54978;BME280;40873;47.522;19.106;2023-02-14T09:50:52;102134.66;;;10.01;66.98
54978;BME280;40873;47.522;19.106;2023-02-14T09:53:26;102122.38;;;10.02;66.65
54978;BME280;40873;47.522;19.106;2023-02-14T09:55:57;102125.09;;;10.28;65.95
54978;BME280;40873;47.522;19.106;2023-02-14T09:58:32;102124.19;;;10.29;65.26
54978;BME280;40873;47.522;19.106;2023-02-14T10:06:53;102121.94;;;10.45;64.77
54978;BME280;40873;47.522;19.106;2023-02-14T10:09:40;102122.13;;;10.09;65.12
54978;BME280;40873;47.522;19.106;2023-02-14T10:12:28;102116.41;;;10.53;64.67
54978;BME280;40873;47.522;19.106;2023-02-14T10:15:03;102120.72;;;10.55;64.19
54978;BME280;40873;47.522;19.106;2023-02-14T10:17:48;102114.38;;;11.14;62.41
54978;BME280;40873;47.522;19.106;2023-02-14T10:20:45;102119.44;;;11.45;60.52
54978;BME280;40873;47.522;19.106;2023-02-14T10:23:20;102113.84;;;11.29;60.76
54978;BME280;40873;47.522;19.106;2023-02-14T10:28:28;102107.50;;;11.83;59.01
54978;BME280;40873;47.522;19.106;2023-02-14T10:31:46;102108.38;;;11.82;58.86
54978;BME280;40873;47.522;19.106;2023-02-14T10:33:54;102113.84;;;12.24;58.29
54978;BME280;40873;47.522;19.106;2023-02-14T10:36:45;102100.25;;;12.33;57.50
54978;BME280;40873;47.522;19.106;2023-02-14T10:42:24;102090.69;;;11.36;56.91
54978;BME280;40873;47.522;19.106;2023-02-14T10:55:59;102076.25;;;11.93;54.74
54978;BME280;40873;47.522;19.106;2023-02-14T10:58:32;102076.97;;;11.98;55.67
54978;BME280;40873;47.522;19.106;2023-02-14T11:01:13;102072.38;;;12.47;54.18
54978;BME280;40873;47.522;19.106;2023-02-14T11:06:22;102068.69;;;12.92;53.17
54978;BME280;40873;47.522;19.106;2023-02-14T11:08:49;102067.25;;;13.05;52.18
54978;BME280;40873;47.522;19.106;2023-02-14T11:13:52;102072.63;;;12.83;52.90
54978;BME280;40873;47.522;19.106;2023-02-14T11:16:31;102064.00;;;13.39;52.22
54978;BME280;40873;47.522;19.106;2023-02-14T11:22:28;102072.13;;;13.55;51.61
54978;BME280;40873;47.522;19.106;2023-02-14T11:25:16;102069.34;;;13.95;49.73
54978;BME280;40873;47.522;19.106;2023-02-14T11:27:45;102073.22;;;14.07;47.90
54978;BME280;40873;47.522;19.106;2023-02-14T11:30:39;102063.31;;;14.11;47.68
54978;BME280;40873;47.522;19.106;2023-02-14T11:33:36;102064.44;;;13.49;49.15
54978;BME280;40873;47.522;19.106;2023-02-14T11:36:10;102067.41;;;13.22;50.38
54978;BME280;40873;47.522;19.106;2023-02-14T11:38:38;102063.81;;;13.03;50.31
54978;BME280;40873;47.522;19.106;2023-02-14T11:41:10;102068.09;;;12.85;49.18
54978;BME280;40873;47.522;19.106;2023-02-14T11:43:40;102063.81;;;13.03;49.43
54978;BME280;40873;47.522;19.106;2023-02-14T11:46:25;102063.34;;;12.93;48.85
54978;BME280;40873;47.522;19.106;2023-02-14T11:51:30;102055.56;;;12.26;49.84
54978;BME280;40873;47.522;19.106;2023-02-14T11:54:00;102058.91;;;12.31;50.64
54978;BME280;40873;47.522;19.106;2023-02-14T11:56:47;102067.69;;;12.31;50.60
54978;BME280;40873;47.522;19.106;2023-02-14T11:59:38;102061.53;;;11.62;51.59
54978;BME280;40873;47.522;19.106;2023-02-14T12:02:37;102061.56;;;11.12;53.91
54978;BME280;40873;47.522;19.106;2023-02-14T12:05:27;102061.00;;;11.52;53.38
54978;BME280;40873;47.522;19.106;2023-02-14T12:08:01;102055.50;;;11.59;52.89
54978;BME280;40873;47.522;19.106;2023-02-14T12:10:29;102058.06;;;11.60;53.01
54978;BME280;40873;47.522;19.106;2023-02-14T12:15:38;102054.69;;;11.08;53.83
54978;BME280;40873;47.522;19.106;2023-02-14T12:26:48;102041.97;;;10.43;55.44
54978;BME280;40873;47.522;19.106;2023-02-14T12:29:39;102034.81;;;10.19;55.63
54978;BME280;40873;47.522;19.106;2023-02-14T12:32:27;102040.25;;;9.84;57.50
54978;BME280;40873;47.522;19.106;2023-02-14T12:35:20;102029.25;;;10.00;57.60
54978;BME280;40873;47.522;19.106;2023-02-14T12:51:06;102013.03;;;9.84;57.73
54978;BME280;40873;47.522;19.106;2023-02-14T12:54:17;102014.72;;;9.57;58.17
54978;BME280;40873;47.522;19.106;2023-02-14T12:56:45;102017.75;;;9.73;57.39
54978;BME280;40873;47.522;19.106;2023-02-14T13:21:06;101997.25;;;9.54;56.98
54978;BME280;40873;47.522;19.106;2023-02-14T13:23:40;102000.38;;;9.67;57.15
54978;BME280;40873;47.522;19.106;2023-02-14T13:26:18;102003.22;;;9.59;57.80
54978;BME280;40873;47.522;19.106;2023-02-14T13:28:56;101997.31;;;9.53;57.53
54978;BME280;40873;47.522;19.106;2023-02-14T13:31:24;102004.41;;;9.49;57.57
54978;BME280;40873;47.522;19.106;2023-02-14T13:36:48;101998.88;;;9.58;56.72
54978;BME280;40873;47.522;19.106;2023-02-14T13:39:24;101998.59;;;9.38;57.41
54978;BME280;40873;47.522;19.106;2023-02-14T13:41:54;101999.31;;;9.43;57.40
54978;BME280;40873;47.522;19.106;2023-02-14T13:44:41;101997.50;;;9.45;57.25
54978;BME280;40873;47.522;19.106;2023-02-14T13:47:34;101991.59;;;9.37;58.01
54978;BME280;40873;47.522;19.106;2023-02-14T13:50:02;101988.25;;;9.32;59.12
54978;BME280;40873;47.522;19.106;2023-02-14T13:52:56;101990.91;;;9.30;59.00
54978;BME280;40873;47.522;19.106;2023-02-14T13:55:28;101984.56;;;9.38;59.21
54978;BME280;40873;47.522;19.106;2023-02-14T13:58:05;101987.69;;;9.50;58.65
54978;BME280;40873;47.522;19.106;2023-02-14T14:00:39;101987.97;;;9.41;59.13
54978;BME280;40873;47.522;19.106;2023-02-14T14:08:37;101996.47;;;9.21;58.64
54978;BME280;40873;47.522;19.106;2023-02-14T14:11:08;101996.56;;;9.17;59.72
54978;BME280;40873;47.522;19.106;2023-02-14T14:22:01;101999.66;;;9.32;57.89
54978;BME280;40873;47.522;19.106;2023-02-14T14:24:29;101998.34;;;9.16;58.08
54978;BME280;40873;47.522;19.106;2023-02-14T14:27:03;101993.09;;;9.16;58.88
54978;BME280;40873;47.522;19.106;2023-02-14T14:29:39;101994.69;;;9.22;58.91
54978;BME280;40873;47.522;19.106;2023-02-14T14:34:57;101992.78;;;9.27;57.99
54978;BME280;40873;47.522;19.106;2023-02-14T14:37:32;101986.16;;;9.14;57.92
54978;BME280;40873;47.522;19.106;2023-02-14T14:40:03;101986.09;;;9.15;58.33
54978;BME280;40873;47.522;19.106;2023-02-14T14:42:36;101978.06;;;9.20;58.39
54978;BME280;40873;47.522;19.106;2023-02-14T14:45:28;101984.16;;;9.22;58.78
54978;BME280;40873;47.522;19.106;2023-02-14T14:47:56;101980.88;;;9.43;57.13
54978;BME280;40873;47.522;19.106;2023-02-14T14:50:28;101984.56;;;9.38;57.83
54978;BME280;40873;47.522;19.106;2023-02-14T14:53:12;101977.97;;;9.23;58.19
54978;BME280;40873;47.522;19.106;2023-02-14T14:55:45;101982.16;;;8.99;58.88
54978;BME280;40873;47.522;19.106;2023-02-14T14:58:31;101978.38;;;9.09;59.18
54978;BME280;40873;47.522;19.106;2023-02-14T15:00:59;101978.31;;;9.11;59.80
54978;BME280;40873;47.522;19.106;2023-02-14T15:03:27;101974.91;;;9.07;60.43
54978;BME280;40873;47.522;19.106;2023-02-14T15:08:36;101980.44;;;8.98;60.29
54978;BME280;40873;47.522;19.106;2023-02-14T15:11:08;101989.28;;;8.95;60.38
54978;BME280;40873;47.522;19.106;2023-02-14T15:16:31;101979.09;;;8.83;61.60
54978;BME280;40873;47.522;19.106;2023-02-14T15:19:10;101984.44;;;8.80;62.05
54978;BME280;40873;47.522;19.106;2023-02-14T15:21:41;101977.72;;;8.70;62.24
54978;BME280;40873;47.522;19.106;2023-02-14T15:24:14;101977.34;;;8.82;61.67
54978;BME280;40873;47.522;19.106;2023-02-14T15:26:43;101976.00;;;8.67;61.88